createdAt,value
2018-07-07T00:00:39.480Z,17.46
2018-07-07T00:03:08.066Z,17.35
2018-07-07T00:05:36.614Z,17.27
2018-07-07T00:08:05.114Z,17.27
2018-07-07T00:10:33.592Z,17.25
2018-07-07T00:13:02.084Z,17.24
2018-07-07T00:15:30.593Z,17.23
2018-07-07T00:17:59.024Z,17.19
2018-07-07T00:20:27.507Z,17.18
2018-07-07T00:23:17.822Z,17.15
2018-07-07T00:25:46.262Z,17.06
2018-07-07T00:28:14.811Z,16.96
2018-07-07T00:30:43.345Z,16.89
2018-07-07T00:33:11.829Z,16.86
2018-07-07T00:35:40.369Z,16.83
2018-07-07T00:38:16.501Z,16.84
2018-07-07T00:40:45.106Z,16.82
2018-07-07T00:43:13.657Z,16.81
2018-07-07T00:45:42.239Z,16.80
2018-07-07T00:48:10.773Z,16.75
2018-07-07T00:50:39.320Z,16.68
2018-07-07T00:53:07.892Z,16.63
2018-07-07T00:55:36.464Z,16.58
2018-07-07T00:58:05.093Z,16.53
2018-07-07T01:00:52.944Z,16.53
2018-07-07T01:03:22.285Z,16.52
2018-07-07T01:05:50.950Z,16.56
2018-07-07T01:08:19.660Z,16.50
2018-07-07T01:10:48.098Z,16.44
2018-07-07T01:13:21.326Z,16.40
2018-07-07T01:15:49.790Z,16.30
2018-07-07T01:18:18.812Z,16.29
2018-07-07T01:20:47.292Z,16.26
2018-07-07T01:23:15.885Z,16.19
2018-07-07T01:25:44.313Z,16.13
2018-07-07T01:31:26.789Z,16.24
2018-07-07T01:33:55.255Z,16.29
2018-07-07T01:36:23.791Z,16.35
2018-07-07T01:38:52.326Z,16.39
2018-07-07T01:41:20.833Z,16.40
2018-07-07T01:43:49.626Z,16.46
2018-07-07T01:46:18.056Z,16.51
2018-07-07T01:48:46.705Z,16.55
2018-07-07T01:51:15.185Z,16.61
2018-07-07T01:53:43.839Z,16.67
2018-07-07T01:56:12.357Z,16.70
2018-07-07T01:58:40.860Z,16.72
2018-07-07T02:01:09.302Z,16.75
2018-07-07T02:03:37.872Z,16.80
2018-07-07T02:06:06.467Z,16.82
2018-07-07T02:08:34.938Z,16.83
2018-07-07T02:11:03.422Z,16.88
2018-07-07T02:13:31.878Z,16.88
2018-07-07T02:16:00.475Z,16.86
2018-07-07T02:18:29.007Z,16.85
2018-07-07T02:20:57.547Z,16.84
2018-07-07T02:23:25.956Z,16.81
2018-07-07T02:25:54.501Z,16.80
2018-07-07T02:28:22.972Z,16.81
2018-07-07T02:31:00.281Z,16.80
2018-07-07T02:33:28.669Z,16.80
2018-07-07T02:35:57.144Z,16.80
2018-07-07T02:38:25.647Z,16.74
2018-07-07T02:40:54.212Z,16.66
2018-07-07T02:43:22.702Z,16.58
2018-07-07T02:45:51.156Z,16.50
2018-07-07T02:48:19.659Z,16.38
2018-07-07T02:50:48.116Z,16.32
2018-07-07T02:53:16.717Z,16.28
2018-07-07T02:55:52.602Z,16.28
2018-07-07T02:58:21.161Z,16.26
2018-07-07T03:01:01.361Z,16.20
2018-07-07T03:03:29.891Z,16.04
2018-07-07T03:05:58.396Z,15.87
2018-07-07T03:08:26.856Z,15.73
2018-07-07T03:10:55.348Z,15.62
2018-07-07T03:13:23.920Z,15.61
2018-07-07T03:15:52.414Z,15.61
2018-07-07T03:18:20.893Z,15.67
2018-07-07T03:20:49.357Z,15.63
2018-07-07T03:23:17.961Z,15.60
2018-07-07T03:25:46.638Z,15.53
2018-07-07T03:28:15.105Z,15.50
2018-07-07T03:30:43.608Z,15.52
2018-07-07T03:33:12.127Z,15.54
2018-07-07T03:35:40.661Z,15.58
2018-07-07T03:38:12.986Z,15.60
2018-07-07T03:40:41.532Z,15.61
2018-07-07T03:43:10.107Z,15.60
2018-07-07T03:45:38.639Z,15.61
2018-07-07T03:48:07.165Z,15.61
2018-07-07T03:50:35.661Z,15.63
2018-07-07T03:53:22.689Z,15.66
2018-07-07T03:55:51.286Z,15.64
2018-07-07T03:58:19.737Z,15.64
2018-07-07T04:00:48.336Z,15.63
2018-07-07T04:03:16.848Z,15.64
2018-07-07T04:05:45.412Z,15.66
2018-07-07T04:08:14.378Z,15.66
2018-07-07T04:10:43.102Z,15.54
2018-07-07T04:13:11.777Z,15.42
2018-07-07T04:15:40.350Z,15.41
2018-07-07T04:18:08.846Z,15.50
2018-07-07T04:20:37.309Z,15.60
2018-07-07T04:23:06.058Z,15.66
2018-07-07T04:25:34.506Z,15.66
2018-07-07T04:28:02.924Z,15.83
2018-07-07T04:30:31.464Z,16.22
2018-07-07T04:32:59.973Z,16.68
2018-07-07T04:35:28.531Z,17.01
2018-07-07T04:38:05.006Z,17.20
2018-07-07T04:40:33.541Z,17.35
2018-07-07T04:43:23.249Z,17.36
2018-07-07T04:46:01.898Z,17.14
2018-07-07T04:48:30.445Z,16.97
2018-07-07T04:51:01.058Z,16.80
2018-07-07T04:53:29.533Z,16.73
2018-07-07T04:55:58.005Z,16.67
2018-07-07T04:58:26.519Z,16.64
2018-07-07T05:00:54.982Z,16.68
2018-07-07T05:03:23.474Z,16.69
2018-07-07T05:05:51.985Z,16.72
2018-07-07T05:08:20.559Z,16.74
2018-07-07T05:14:15.016Z,16.76
2018-07-07T05:16:43.541Z,16.88
2018-07-07T05:19:16.668Z,17.05
2018-07-07T05:21:45.211Z,17.26
2018-07-07T05:24:14.522Z,17.43
2018-07-07T05:26:43.005Z,17.59
2018-07-07T05:29:45.979Z,17.71
2018-07-07T05:32:14.394Z,17.80
2018-07-07T05:34:42.947Z,17.81
2018-07-07T05:37:11.504Z,17.85
2018-07-07T05:39:40.165Z,17.87
2018-07-07T05:42:08.728Z,17.90
2018-07-07T05:44:37.280Z,17.99
2018-07-07T05:47:05.868Z,18.04
2018-07-07T05:49:34.277Z,18.14
2018-07-07T05:52:02.845Z,18.22
2018-07-07T05:54:31.423Z,18.28
2018-07-07T05:56:59.849Z,18.30
2018-07-07T05:59:28.828Z,18.30
2018-07-07T06:01:57.584Z,18.35
2018-07-07T06:04:26.174Z,18.42
2018-07-07T06:06:55.007Z,18.47
2018-07-07T06:09:23.556Z,18.54
2018-07-07T06:11:52.192Z,18.63
2018-07-07T06:14:20.725Z,18.69
2018-07-07T06:16:49.202Z,18.77
2018-07-07T06:19:17.644Z,18.81
2018-07-07T06:21:46.102Z,18.90
2018-07-07T06:24:14.845Z,19.03
2018-07-07T06:26:43.544Z,19.14
2018-07-07T06:29:12.015Z,19.32
2018-07-07T06:31:40.582Z,19.45
2018-07-07T06:34:09.092Z,19.53
2018-07-07T06:36:37.697Z,19.52
2018-07-07T06:39:06.711Z,19.56
2018-07-07T06:41:35.253Z,19.57
2018-07-07T06:44:03.988Z,19.56
2018-07-07T06:46:32.513Z,19.62
2018-07-07T06:49:01.019Z,19.66
2018-07-07T06:51:29.460Z,19.69
2018-07-07T06:53:58.112Z,19.69
2018-07-07T06:56:26.640Z,19.72
2018-07-07T06:58:55.064Z,19.72
2018-07-07T07:01:23.792Z,19.75
2018-07-07T07:03:52.326Z,19.79
2018-07-07T07:06:20.899Z,19.84
2018-07-07T07:08:49.401Z,19.85
2018-07-07T07:11:17.876Z,19.89
2018-07-07T07:13:46.316Z,19.93
2018-07-07T07:16:14.756Z,20.00
2018-07-07T07:18:43.332Z,20.06
2018-07-07T07:21:11.867Z,20.15
2018-07-07T07:23:40.338Z,20.14
2018-07-07T07:26:08.892Z,20.19
2018-07-07T07:28:37.395Z,20.28
2018-07-07T07:31:05.932Z,20.35
2018-07-07T07:33:34.769Z,20.44
2018-07-07T07:36:07.184Z,20.59
2018-07-07T07:38:35.723Z,20.68
2018-07-07T07:41:04.278Z,20.73
2018-07-07T07:43:32.831Z,20.81
2018-07-07T07:46:01.297Z,20.88
2018-07-07T07:48:30.123Z,20.95
2018-07-07T07:50:58.758Z,20.98
2018-07-07T07:53:27.174Z,20.98
2018-07-07T07:55:59.748Z,20.98
2018-07-07T07:58:28.181Z,21.01
2018-07-07T08:00:56.676Z,21.08
2018-07-07T08:04:01.746Z,21.13
2018-07-07T08:06:30.201Z,21.15
2018-07-07T08:08:58.929Z,21.18
2018-07-07T08:11:27.382Z,21.13
2018-07-07T08:13:56.037Z,21.22
2018-07-07T08:16:24.575Z,21.20
2018-07-07T08:18:53.163Z,21.19
2018-07-07T08:21:21.700Z,21.29
2018-07-07T08:23:50.183Z,21.41
2018-07-07T08:26:18.673Z,21.44
2018-07-07T08:28:47.157Z,21.50
2018-07-07T08:31:15.588Z,21.58
2018-07-07T08:33:44.209Z,21.54
2018-07-07T08:36:12.828Z,21.66
2018-07-07T08:38:41.382Z,21.69
2018-07-07T08:41:13.385Z,21.76
2018-07-07T08:43:42.763Z,21.79
2018-07-07T08:46:12.001Z,21.82
2018-07-07T08:48:40.584Z,21.93
2018-07-07T08:51:09.133Z,21.98
2018-07-07T08:53:37.599Z,22.02
2018-07-07T08:56:06.127Z,22.07
2018-07-07T08:58:34.682Z,22.18
2018-07-07T09:01:06.737Z,22.30
2018-07-07T09:03:35.215Z,22.27
2018-07-07T09:06:03.672Z,22.30
2018-07-07T09:08:32.178Z,22.33
2018-07-07T09:11:00.644Z,22.35
2018-07-07T09:13:29.226Z,22.44
2018-07-07T09:15:57.661Z,22.51
2018-07-07T09:18:26.089Z,22.61
2018-07-07T09:20:54.613Z,22.71
2018-07-07T09:23:23.168Z,22.76
2018-07-07T09:25:51.668Z,22.76
2018-07-07T09:28:20.245Z,22.90
2018-07-07T09:30:48.697Z,23.07
2018-07-07T09:33:17.205Z,23.09
2018-07-07T09:35:45.721Z,23.20
2018-07-07T09:38:14.264Z,23.25
2018-07-07T09:40:42.785Z,23.36
2018-07-07T09:43:11.314Z,23.40
2018-07-07T09:45:39.792Z,23.45
2018-07-07T09:48:08.293Z,23.58
2018-07-07T09:50:36.765Z,23.55
2018-07-07T09:53:05.585Z,23.57
2018-07-07T09:55:34.145Z,23.51
2018-07-07T09:58:02.777Z,23.66
2018-07-07T10:00:36.743Z,23.73
2018-07-07T10:03:05.204Z,23.80
2018-07-07T10:05:33.813Z,23.89
2018-07-07T10:08:02.369Z,24.05
2018-07-07T10:10:30.874Z,24.20
2018-07-07T10:12:59.346Z,24.25
2018-07-07T10:15:27.815Z,24.33
2018-07-07T10:17:56.325Z,24.47
2018-07-07T10:20:24.812Z,24.47
2018-07-07T10:22:53.698Z,24.57
2018-07-07T10:25:22.132Z,24.72
2018-07-07T10:27:50.666Z,24.86
2018-07-07T10:30:19.173Z,24.92
2018-07-07T10:32:47.812Z,24.92
2018-07-07T10:35:16.437Z,24.99
2018-07-07T10:37:44.892Z,25.12
2018-07-07T10:40:13.361Z,25.25
2018-07-07T10:42:42.041Z,25.40
2018-07-07T10:45:10.505Z,25.45
2018-07-07T10:47:39.010Z,25.58
2018-07-07T10:50:07.529Z,25.83
2018-07-07T10:52:36.136Z,25.94
2018-07-07T10:55:04.673Z,25.79
2018-07-07T10:57:33.150Z,25.72
2018-07-07T11:00:01.726Z,25.86
2018-07-07T11:02:30.192Z,26.09
2018-07-07T11:04:58.705Z,26.15
2018-07-07T11:07:27.153Z,26.30
2018-07-07T11:09:55.740Z,26.37
2018-07-07T11:12:24.252Z,26.44
2018-07-07T11:14:52.848Z,26.80
2018-07-07T11:17:21.417Z,26.94
2018-07-07T11:19:50.224Z,27.07
2018-07-07T11:22:18.680Z,27.17
2018-07-07T11:24:47.150Z,27.31
2018-07-07T11:27:15.795Z,27.44
2018-07-07T11:29:44.374Z,27.78
2018-07-07T11:32:12.950Z,28.09
2018-07-07T11:34:41.485Z,28.43
2018-07-07T11:37:09.984Z,28.56
2018-07-07T11:39:38.594Z,28.70
2018-07-07T11:42:07.180Z,28.69
2018-07-07T11:44:35.726Z,29.07
2018-07-07T11:47:04.241Z,29.59
2018-07-07T11:49:32.774Z,29.63
2018-07-07T11:52:01.455Z,29.78
2018-07-07T11:54:29.932Z,29.94
2018-07-07T11:56:58.435Z,29.92
2018-07-07T11:59:27.106Z,29.99
2018-07-07T12:01:55.591Z,30.16
2018-07-07T12:04:24.226Z,30.26
2018-07-07T12:06:52.871Z,30.53
2018-07-07T12:09:21.331Z,30.74
2018-07-07T12:11:49.847Z,30.75
2018-07-07T12:14:18.935Z,30.76
2018-07-07T12:16:47.508Z,31.07
2018-07-07T12:19:15.990Z,31.24
2018-07-07T12:21:44.476Z,31.44
2018-07-07T12:24:17.098Z,31.32
2018-07-07T12:26:45.658Z,31.53
2018-07-07T12:29:14.210Z,31.64
2018-07-07T12:32:22.342Z,31.87
2018-07-07T12:34:50.933Z,31.78
2018-07-07T12:37:19.405Z,31.57
2018-07-07T12:39:47.861Z,31.56
2018-07-07T12:42:16.355Z,31.71
2018-07-07T12:44:45.182Z,31.93
2018-07-07T12:47:13.729Z,31.78
2018-07-07T12:49:42.296Z,31.65
2018-07-07T12:52:10.775Z,31.44
2018-07-07T12:54:39.331Z,31.57
2018-07-07T12:57:08.209Z,32.04
2018-07-07T12:59:36.745Z,32.26
2018-07-07T13:02:05.312Z,32.07
2018-07-07T13:04:33.788Z,31.85
2018-07-07T13:07:02.404Z,31.99
2018-07-07T13:09:30.876Z,32.10
2018-07-07T13:11:59.553Z,32.32
2018-07-07T13:14:27.985Z,32.22
2018-07-07T13:16:56.609Z,32.17
2018-07-07T13:19:25.088Z,32.20
2018-07-07T13:21:53.593Z,32.43
2018-07-07T13:24:22.088Z,32.27
2018-07-07T13:26:50.529Z,32.29
2018-07-07T13:29:18.982Z,32.68
2018-07-07T13:31:47.420Z,32.70
2018-07-07T13:34:15.880Z,32.74
2018-07-07T13:36:44.449Z,32.89
2018-07-07T13:39:13.238Z,33.01
2018-07-07T13:41:41.744Z,33.02
2018-07-07T13:44:11.026Z,32.82
2018-07-07T13:46:50.272Z,32.87
2018-07-07T13:49:18.841Z,32.50
2018-07-07T13:51:47.316Z,32.49
2018-07-07T13:54:15.881Z,32.28
2018-07-07T13:56:44.361Z,32.33
2018-07-07T13:59:12.920Z,31.99
2018-07-07T14:01:41.483Z,31.76
2018-07-07T14:04:10.082Z,31.91
2018-07-07T14:06:38.673Z,32.14
2018-07-07T14:09:07.977Z,32.22
2018-07-07T14:11:36.451Z,32.40
2018-07-07T14:14:05.071Z,32.12
2018-07-07T14:16:33.589Z,31.82
2018-07-07T14:19:02.000Z,31.67
2018-07-07T14:21:30.440Z,31.31
2018-07-07T14:23:58.934Z,31.26
2018-07-07T14:26:27.584Z,30.98
2018-07-07T14:28:56.052Z,30.84
2018-07-07T14:31:24.641Z,31.09
2018-07-07T14:33:53.153Z,31.10
2018-07-07T14:36:21.807Z,31.44
2018-07-07T14:38:50.314Z,31.70
2018-07-07T14:41:20.262Z,31.87
2018-07-07T14:43:57.856Z,31.88
2018-07-07T14:46:27.025Z,31.65
2018-07-07T14:48:55.735Z,31.55
2018-07-07T14:51:24.320Z,31.49
2018-07-07T14:53:52.958Z,31.51
2018-07-07T14:56:22.589Z,30.88
2018-07-07T14:58:51.357Z,30.66
2018-07-07T15:01:20.146Z,30.60
2018-07-07T15:03:48.712Z,30.38
2018-07-07T15:06:17.353Z,29.92
2018-07-07T15:08:45.937Z,29.75
2018-07-07T15:11:14.667Z,29.57
2018-07-07T15:13:43.180Z,29.70
2018-07-07T15:16:11.744Z,29.71
2018-07-07T15:18:40.210Z,29.84
2018-07-07T15:21:16.585Z,29.90
2018-07-07T15:23:45.070Z,29.68
2018-07-07T15:26:13.516Z,29.71
2018-07-07T15:28:42.013Z,29.71
2018-07-07T15:31:10.550Z,30.07
2018-07-07T15:33:39.149Z,30.15
2018-07-07T15:36:07.716Z,30.11
2018-07-07T15:38:36.273Z,30.14
2018-07-07T15:41:04.885Z,30.03
2018-07-07T15:43:33.391Z,30.08
2018-07-07T15:46:01.990Z,30.23
2018-07-07T15:48:30.493Z,30.03
2018-07-07T15:50:59.072Z,29.85
2018-07-07T15:53:27.544Z,29.79
2018-07-07T15:55:56.056Z,29.63
2018-07-07T15:58:24.631Z,29.48
2018-07-07T16:00:53.140Z,29.59
2018-07-07T16:03:21.676Z,29.38
2018-07-07T16:05:50.411Z,29.20
2018-07-07T16:08:18.958Z,29.17
2018-07-07T16:10:47.500Z,29.22
2018-07-07T16:13:16.095Z,29.30
2018-07-07T16:15:44.718Z,29.13
2018-07-07T16:18:13.296Z,28.94
2018-07-07T16:20:41.819Z,28.87
2018-07-07T16:23:10.370Z,28.79
2018-07-07T16:25:38.822Z,28.81
2018-07-07T16:28:07.481Z,28.52
2018-07-07T16:30:36.308Z,28.38
2018-07-07T16:33:04.940Z,28.24
2018-07-07T16:35:33.476Z,28.27
2018-07-07T16:38:02.013Z,28.22
2018-07-07T16:40:30.549Z,28.05
2018-07-07T16:43:00.349Z,27.98
2018-07-07T16:45:28.953Z,28.06
2018-07-07T16:47:57.436Z,27.96
2018-07-07T16:50:31.965Z,27.88
2018-07-07T16:53:00.555Z,27.97
2018-07-07T16:55:29.029Z,28.01
2018-07-07T16:57:57.630Z,27.87
2018-07-07T17:00:26.217Z,27.90
2018-07-07T17:02:55.205Z,27.77
2018-07-07T17:05:23.794Z,27.55
2018-07-07T17:07:52.470Z,27.48
2018-07-07T17:10:21.120Z,27.49
2018-07-07T17:12:49.849Z,27.41
2018-07-07T17:15:18.431Z,27.26
2018-07-07T17:17:47.541Z,27.19
2018-07-07T17:20:15.999Z,27.03
2018-07-07T17:22:45.726Z,26.82
2018-07-07T17:25:14.268Z,26.64
2018-07-07T17:27:43.408Z,26.51
2018-07-07T17:30:12.219Z,26.45
2018-07-07T17:32:40.916Z,26.42
2018-07-07T17:35:09.554Z,26.32
2018-07-07T17:37:38.097Z,26.12
2018-07-07T17:40:06.684Z,25.98
2018-07-07T17:42:35.375Z,25.87
2018-07-07T17:45:03.875Z,25.80
2018-07-07T17:47:32.664Z,25.76
2018-07-07T17:50:03.129Z,25.68
2018-07-07T17:52:33.592Z,25.58
2018-07-07T17:55:03.302Z,25.50
2018-07-07T17:57:31.834Z,25.38
2018-07-07T18:00:00.506Z,25.30
2018-07-07T18:02:29.088Z,25.19
2018-07-07T18:04:57.674Z,25.10
2018-07-07T18:07:26.254Z,25.04
2018-07-07T18:09:54.805Z,24.99
2018-07-07T18:12:23.256Z,24.92
2018-07-07T18:14:51.751Z,24.82
2018-07-07T18:17:20.239Z,24.75
2018-07-07T18:19:48.840Z,24.67
2018-07-07T18:22:17.278Z,24.62
2018-07-07T18:24:45.708Z,24.54
2018-07-07T18:27:14.304Z,24.49
2018-07-07T18:29:42.965Z,24.43
2018-07-07T18:32:11.549Z,24.37
2018-07-07T18:34:40.125Z,24.30
2018-07-07T18:37:08.580Z,24.19
2018-07-07T18:39:37.096Z,24.10
2018-07-07T18:42:05.692Z,24.02
2018-07-07T18:44:34.117Z,24.00
2018-07-07T18:47:02.650Z,23.93
2018-07-07T18:49:55.693Z,23.87
2018-07-07T18:52:24.248Z,23.80
2018-07-07T18:54:52.802Z,23.73
2018-07-07T18:57:21.316Z,23.65
2018-07-07T18:59:50.045Z,23.56
2018-07-07T19:02:18.597Z,23.50
2018-07-07T19:04:47.051Z,23.43
2018-07-07T19:07:15.685Z,23.34
2018-07-07T19:09:44.172Z,23.24
2018-07-07T19:12:12.624Z,23.19
2018-07-07T19:14:41.132Z,23.09
2018-07-07T19:17:09.664Z,23.04
2018-07-07T19:19:38.229Z,22.93
2018-07-07T19:22:12.075Z,22.89
2018-07-07T19:24:45.832Z,22.83
2018-07-07T19:27:14.316Z,22.74
2018-07-07T19:29:42.798Z,22.62
2018-07-07T19:32:16.518Z,22.53
2018-07-07T19:34:50.362Z,22.44
2018-07-07T19:37:20.600Z,22.38
2018-07-07T19:39:49.120Z,22.29
2018-07-07T19:42:17.865Z,22.23
2018-07-07T19:44:46.481Z,22.16
2018-07-07T19:47:15.034Z,22.06
2018-07-07T19:49:43.659Z,21.99
2018-07-07T19:52:12.233Z,21.91
2018-07-07T19:54:40.669Z,21.83
2018-07-07T19:57:09.208Z,21.75
2018-07-07T19:59:37.874Z,21.68
2018-07-07T20:02:06.452Z,21.60
2018-07-07T20:04:35.034Z,21.52
2018-07-07T20:07:03.550Z,21.42
2018-07-07T20:09:32.097Z,21.33
2018-07-07T20:12:00.809Z,21.26
2018-07-07T20:14:29.389Z,21.18
2018-07-07T20:17:08.228Z,21.11
2018-07-07T20:19:53.410Z,21.01
2018-07-07T20:22:21.966Z,20.88
2018-07-07T20:24:50.552Z,20.72
2018-07-07T20:27:24.430Z,20.66
2018-07-07T20:29:53.050Z,20.59
2018-07-07T20:32:26.923Z,20.51
2018-07-07T20:34:55.460Z,20.40
2018-07-07T20:37:24.096Z,20.34
2018-07-07T20:39:52.673Z,20.26
2018-07-07T20:42:21.277Z,20.21
2018-07-07T20:44:49.902Z,20.10
2018-07-07T20:47:18.563Z,20.02
2018-07-07T20:49:47.125Z,19.98
2018-07-07T20:52:15.613Z,19.90
2018-07-07T20:54:44.091Z,19.81
2018-07-07T20:57:12.618Z,19.73
2018-07-07T20:59:41.057Z,19.61
2018-07-07T21:02:09.665Z,19.57
2018-07-07T21:04:38.125Z,19.38
2018-07-07T21:07:06.762Z,19.26
2018-07-07T21:09:35.243Z,19.24
2018-07-07T21:12:03.765Z,19.19
2018-07-07T21:14:32.387Z,19.06
2018-07-07T21:17:00.934Z,18.98
2018-07-07T21:19:29.380Z,18.91
2018-07-07T21:21:57.908Z,18.80
2018-07-07T21:24:26.469Z,18.71
2018-07-07T21:26:55.001Z,18.63
2018-07-07T21:29:23.643Z,18.59
2018-07-07T21:31:52.196Z,18.51
2018-07-07T21:34:20.751Z,18.50
2018-07-07T21:36:49.220Z,18.52
2018-07-07T21:39:17.773Z,18.53
2018-07-07T21:41:46.324Z,18.47
2018-07-07T21:44:14.783Z,18.43
2018-07-07T21:46:43.370Z,18.41
2018-07-07T21:49:11.941Z,18.40
2018-07-07T21:51:40.519Z,18.37
2018-07-07T21:54:09.196Z,18.34
2018-07-07T21:56:37.645Z,18.28
2018-07-07T21:59:11.571Z,18.13
2018-07-07T22:05:07.044Z,17.88
2018-07-07T22:07:39.956Z,17.83
2018-07-07T22:10:08.732Z,17.72
2018-07-07T22:12:37.344Z,17.68
2018-07-07T22:15:05.919Z,17.69
2018-07-07T22:17:34.457Z,17.69
2018-07-07T22:20:02.956Z,17.65
2018-07-07T22:22:31.520Z,17.65
2018-07-07T22:25:00.084Z,17.67
2018-07-07T22:27:28.601Z,17.63
2018-07-07T22:29:57.227Z,17.56
2018-07-07T22:32:25.791Z,17.50
2018-07-07T22:34:54.334Z,17.43
2018-07-07T22:37:22.938Z,17.40
2018-07-07T22:39:51.360Z,17.41
2018-07-07T22:42:20.092Z,17.43
2018-07-07T22:44:49.509Z,17.41
2018-07-07T22:47:18.079Z,17.38
2018-07-07T22:49:46.584Z,17.34
2018-07-07T22:52:15.156Z,17.26
2018-07-07T22:54:43.780Z,17.22
2018-07-07T22:57:12.251Z,17.18
2018-07-07T22:59:40.797Z,17.13
2018-07-07T23:02:09.286Z,17.08
2018-07-07T23:04:37.736Z,16.99
2018-07-07T23:07:06.482Z,16.98
2018-07-07T23:09:35.025Z,17.00
2018-07-07T23:12:03.501Z,16.97
2018-07-07T23:14:32.006Z,16.84
2018-07-07T23:17:01.810Z,16.78
2018-07-07T23:19:30.263Z,16.71
2018-07-07T23:21:58.868Z,16.48
2018-07-07T23:24:27.325Z,16.31
2018-07-07T23:26:55.886Z,16.29
2018-07-07T23:29:24.434Z,16.24
2018-07-07T23:31:52.895Z,16.21
2018-07-07T23:34:21.365Z,16.15
2018-07-07T23:36:49.797Z,16.12
2018-07-07T23:39:18.296Z,16.15
2018-07-07T23:41:46.861Z,16.10
2018-07-07T23:44:15.327Z,16.04
2018-07-07T23:46:43.860Z,15.97
2018-07-07T23:49:12.478Z,15.87
2018-07-07T23:51:41.207Z,15.75
2018-07-07T23:54:11.349Z,15.64
2018-07-07T23:56:40.609Z,15.66
2018-07-07T23:59:09.178Z,15.70
